Terminal Aerodrome Forecast
Issued by NWS

Home | Current Version | Previous Version | Graphics & Text | Print | Product List | Glossary On
Versions: 1 2 3 4 5 6 7 8 9 10 11 12 13 14 15 16 17 18 19 20
000
FTUS43 KFGF 142200 AAA
TAFBJI
TAF AMD
KBJI 142258Z 1423/1518 13005KT 1/4SM -DZ FG OVC006
      TEMPO 1423/1501 3/4SM -RA BR OVC004
     FM150600 31007KT 1/2SM -DZ FG OVC003
     FM151200 31012KT 1SM BR OVC004=

USA.gov is the U.S. government's official web portal to all federal, state and local government web resources and services.